Terminal Aerodrome Forecast
Issued by NWS Wilmington, OH

Current Version | Previous Version | Graphics & Text | Print | Product List | Glossary On
Versions: 1 2 3 4 5 6 7 8 9 10 11 12 13 14 15 16 17 18 19 20 21 22
000
FTUS41 KILN 032058 AAC
TAFILN
TAF AMD
KILN 032058Z 0321/0418 25008KT P6SM VCTS FEW050CB
     FM040000 VRB03KT P6SM SCT050
     FM040600 VRB03KT 5SM BR VCTS SCT040CB BKN120
     FM041300 22005KT P6SM VCTS BKN040CB=

USA.gov is the U.S. government's official web portal to all federal, state and local government web resources and services.